sensor_id;sensor_type;location;lat;lon;timestamp;P1;durP1;ratioP1;P2;durP2;ratioP2
32295;SDS011;18781;51.550;5.418;2023-04-03T00:01:00;10.65;;;5.60;;
32295;SDS011;18781;51.550;5.418;2023-04-03T00:03:26;8.68;;;5.70;;
32295;SDS011;18781;51.550;5.418;2023-04-03T00:05:52;9.38;;;5.47;;
32295;SDS011;18781;51.550;5.418;2023-04-03T00:08:18;11.48;;;5.65;;
32295;SDS011;18781;51.550;5.418;2023-04-03T00:10:44;8.30;;;5.53;;
32295;SDS011;18781;51.550;5.418;2023-04-03T00:13:10;13.52;;;6.38;;
32295;SDS011;18781;51.550;5.418;2023-04-03T00:15:36;13.35;;;5.88;;
32295;SDS011;18781;51.550;5.418;2023-04-03T00:18:04;10.27;;;5.45;;
32295;SDS011;18781;51.550;5.418;2023-04-03T00:20:30;11.55;;;6.05;;
32295;SDS011;18781;51.550;5.418;2023-04-03T00:22:56;9.57;;;5.88;;
32295;SDS011;18781;51.550;5.418;2023-04-03T00:25:22;10.52;;;5.70;;
32295;SDS011;18781;51.550;5.418;2023-04-03T00:27:48;9.57;;;5.90;;
32295;SDS011;18781;51.550;5.418;2023-04-03T00:30:15;13.70;;;6.22;;
32295;SDS011;18781;51.550;5.418;2023-04-03T00:32:42;9.90;;;5.57;;
32295;SDS011;18781;51.550;5.418;2023-04-03T00:35:08;8.90;;;5.43;;
32295;SDS011;18781;51.550;5.418;2023-04-03T00:37:36;8.50;;;5.25;;
32295;SDS011;18781;51.550;5.418;2023-04-03T00:40:02;10.07;;;6.05;;
32295;SDS011;18781;51.550;5.418;2023-04-03T00:42:28;7.90;;;5.43;;
32295;SDS011;18781;51.550;5.418;2023-04-03T00:47:22;9.40;;;5.33;;
32295;SDS011;18781;51.550;5.418;2023-04-03T00:49:49;11.73;;;5.75;;
32295;SDS011;18781;51.550;5.418;2023-04-03T00:52:17;9.52;;;5.55;;
32295;SDS011;18781;51.550;5.418;2023-04-03T00:54:47;11.73;;;5.43;;
32295;SDS011;18781;51.550;5.418;2023-04-03T00:57:15;10.90;;;5.50;;
32295;SDS011;18781;51.550;5.418;2023-04-03T00:59:46;12.48;;;6.30;;
32295;SDS011;18781;51.550;5.418;2023-04-03T01:02:15;10.30;;;6.32;;
32295;SDS011;18781;51.550;5.418;2023-04-03T01:04:42;9.90;;;5.97;;
32295;SDS011;18781;51.550;5.418;2023-04-03T01:07:15;9.48;;;5.50;;
32295;SDS011;18781;51.550;5.418;2023-04-03T01:09:47;11.10;;;6.05;;
32295;SDS011;18781;51.550;5.418;2023-04-03T01:12:22;10.10;;;6.00;;
32295;SDS011;18781;51.550;5.418;2023-04-03T01:22:44;9.40;;;5.60;;
32295;SDS011;18781;51.550;5.418;2023-04-03T01:25:30;10.73;;;5.78;;
32295;SDS011;18781;51.550;5.418;2023-04-03T01:27:56;9.15;;;6.00;;
32295;SDS011;18781;51.550;5.418;2023-04-03T01:30:24;9.18;;;6.07;;
32295;SDS011;18781;51.550;5.418;2023-04-03T01:32:55;9.20;;;6.03;;
32295;SDS011;18781;51.550;5.418;2023-04-03T01:35:21;9.73;;;5.88;;
32295;SDS011;18781;51.550;5.418;2023-04-03T01:37:46;12.43;;;6.20;;
32295;SDS011;18781;51.550;5.418;2023-04-03T01:40:12;9.93;;;5.85;;
32295;SDS011;18781;51.550;5.418;2023-04-03T01:42:38;9.05;;;5.75;;
32295;SDS011;18781;51.550;5.418;2023-04-03T01:45:03;10.73;;;5.80;;
32295;SDS011;18781;51.550;5.418;2023-04-03T01:47:29;9.50;;;5.60;;
32295;SDS011;18781;51.550;5.418;2023-04-03T01:49:55;12.63;;;6.18;;
32295;SDS011;18781;51.550;5.418;2023-04-03T01:52:20;10.02;;;6.07;;
32295;SDS011;18781;51.550;5.418;2023-04-03T01:54:46;9.30;;;5.93;;
32295;SDS011;18781;51.550;5.418;2023-04-03T01:57:12;11.60;;;5.47;;
32295;SDS011;18781;51.550;5.418;2023-04-03T01:59:39;11.43;;;6.25;;
32295;SDS011;18781;51.550;5.418;2023-04-03T02:02:05;11.50;;;6.35;;
32295;SDS011;18781;51.550;5.418;2023-04-03T02:04:31;11.10;;;6.18;;
32295;SDS011;18781;51.550;5.418;2023-04-03T02:06:56;10.15;;;6.00;;
32295;SDS011;18781;51.550;5.418;2023-04-03T02:09:22;9.88;;;6.40;;
32295;SDS011;18781;51.550;5.418;2023-04-03T02:11:48;10.25;;;6.00;;
32295;SDS011;18781;51.550;5.418;2023-04-03T02:14:13;10.80;;;5.90;;
32295;SDS011;18781;51.550;5.418;2023-04-03T02:16:39;8.35;;;5.80;;
32295;SDS011;18781;51.550;5.418;2023-04-03T02:19:04;9.98;;;5.80;;
32295;SDS011;18781;51.550;5.418;2023-04-03T02:21:30;13.25;;;5.80;;
32295;SDS011;18781;51.550;5.418;2023-04-03T02:23:56;12.57;;;5.72;;
32295;SDS011;18781;51.550;5.418;2023-04-03T02:26:21;10.20;;;5.35;;
32295;SDS011;18781;51.550;5.418;2023-04-03T02:28:47;12.95;;;5.95;;
32295;SDS011;18781;51.550;5.418;2023-04-03T02:31:13;11.63;;;5.57;;
32295;SDS011;18781;51.550;5.418;2023-04-03T02:33:38;8.15;;;4.90;;
32295;SDS011;18781;51.550;5.418;2023-04-03T02:36:04;9.60;;;5.15;;
32295;SDS011;18781;51.550;5.418;2023-04-03T02:38:31;11.18;;;5.90;;
32295;SDS011;18781;51.550;5.418;2023-04-03T02:41:07;9.77;;;5.15;;
32295;SDS011;18781;51.550;5.418;2023-04-03T02:43:35;10.02;;;5.30;;
32295;SDS011;18781;51.550;5.418;2023-04-03T02:46:01;10.68;;;5.40;;
32295;SDS011;18781;51.550;5.418;2023-04-03T02:48:27;10.18;;;5.25;;
32295;SDS011;18781;51.550;5.418;2023-04-03T02:50:53;9.30;;;5.00;;
32295;SDS011;18781;51.550;5.418;2023-04-03T02:53:18;9.43;;;5.18;;
32295;SDS011;18781;51.550;5.418;2023-04-03T02:55:45;10.07;;;5.55;;
32295;SDS011;18781;51.550;5.418;2023-04-03T02:58:10;9.63;;;5.25;;
32295;SDS011;18781;51.550;5.418;2023-04-03T03:00:36;12.05;;;4.93;;
32295;SDS011;18781;51.550;5.418;2023-04-03T03:03:02;10.82;;;4.50;;
32295;SDS011;18781;51.550;5.418;2023-04-03T03:05:28;7.72;;;4.45;;
32295;SDS011;18781;51.550;5.418;2023-04-03T03:07:55;9.57;;;4.22;;
32295;SDS011;18781;51.550;5.418;2023-04-03T03:10:21;8.95;;;4.60;;
32295;SDS011;18781;51.550;5.418;2023-04-03T03:12:46;15.02;;;4.47;;
32295;SDS011;18781;51.550;5.418;2023-04-03T03:15:12;10.13;;;4.10;;
32295;SDS011;18781;51.550;5.418;2023-04-03T03:17:38;9.73;;;4.07;;
32295;SDS011;18781;51.550;5.418;2023-04-03T03:20:04;11.02;;;4.10;;
32295;SDS011;18781;51.550;5.418;2023-04-03T03:22:30;7.80;;;3.90;;
32295;SDS011;18781;51.550;5.418;2023-04-03T03:24:56;11.70;;;4.38;;
32295;SDS011;18781;51.550;5.418;2023-04-03T03:27:22;9.45;;;4.22;;
32295;SDS011;18781;51.550;5.418;2023-04-03T03:29:47;9.68;;;3.70;;
32295;SDS011;18781;51.550;5.418;2023-04-03T03:32:13;9.95;;;3.72;;
32295;SDS011;18781;51.550;5.418;2023-04-03T03:34:38;9.30;;;3.90;;
32295;SDS011;18781;51.550;5.418;2023-04-03T03:37:04;14.30;;;4.03;;
32295;SDS011;18781;51.550;5.418;2023-04-03T03:39:30;6.35;;;3.45;;
32295;SDS011;18781;51.550;5.418;2023-04-03T03:41:55;9.88;;;3.80;;
32295;SDS011;18781;51.550;5.418;2023-04-03T03:44:21;6.13;;;3.75;;
32295;SDS011;18781;51.550;5.418;2023-04-03T03:46:46;7.35;;;3.50;;
32295;SDS011;18781;51.550;5.418;2023-04-03T03:49:12;10.85;;;3.58;;
32295;SDS011;18781;51.550;5.418;2023-04-03T03:51:38;12.55;;;4.47;;
32295;SDS011;18781;51.550;5.418;2023-04-03T03:54:04;5.57;;;3.30;;
32295;SDS011;18781;51.550;5.418;2023-04-03T03:56:30;10.65;;;4.13;;
32295;SDS011;18781;51.550;5.418;2023-04-03T03:58:56;11.38;;;4.00;;
32295;SDS011;18781;51.550;5.418;2023-04-03T04:01:22;10.18;;;4.30;;
32295;SDS011;18781;51.550;5.418;2023-04-03T04:03:49;9.10;;;4.50;;
32295;SDS011;18781;51.550;5.418;2023-04-03T04:06:15;8.38;;;3.92;;
32295;SDS011;18781;51.550;5.418;2023-04-03T04:08:41;10.02;;;3.40;;
32295;SDS011;18781;51.550;5.418;2023-04-03T04:11:07;8.10;;;3.50;;
32295;SDS011;18781;51.550;5.418;2023-04-03T04:13:33;8.00;;;3.55;;
32295;SDS011;18781;51.550;5.418;2023-04-03T04:15:59;10.65;;;3.42;;
32295;SDS011;18781;51.550;5.418;2023-04-03T04:18:25;8.15;;;3.25;;
32295;SDS011;18781;51.550;5.418;2023-04-03T04:20:51;9.13;;;3.30;;
32295;SDS011;18781;51.550;5.418;2023-04-03T04:23:17;7.07;;;3.20;;
32295;SDS011;18781;51.550;5.418;2023-04-03T04:25:46;8.43;;;3.45;;
32295;SDS011;18781;51.550;5.418;2023-04-03T04:28:13;6.45;;;3.17;;
32295;SDS011;18781;51.550;5.418;2023-04-03T04:30:39;5.68;;;2.75;;
32295;SDS011;18781;51.550;5.418;2023-04-03T04:33:04;10.60;;;3.03;;
32295;SDS011;18781;51.550;5.418;2023-04-03T04:35:30;5.93;;;3.03;;
32295;SDS011;18781;51.550;5.418;2023-04-03T04:37:56;8.68;;;3.13;;
32295;SDS011;18781;51.550;5.418;2023-04-03T04:40:21;6.07;;;3.13;;
32295;SDS011;18781;51.550;5.418;2023-04-03T04:42:47;6.07;;;2.80;;
32295;SDS011;18781;51.550;5.418;2023-04-03T04:45:13;6.53;;;2.72;;
32295;SDS011;18781;51.550;5.418;2023-04-03T04:47:39;9.15;;;3.13;;
32295;SDS011;18781;51.550;5.418;2023-04-03T04:50:05;6.22;;;2.92;;
32295;SDS011;18781;51.550;5.418;2023-04-03T04:52:31;8.68;;;2.80;;
32295;SDS011;18781;51.550;5.418;2023-04-03T04:54:57;6.80;;;2.63;;
32295;SDS011;18781;51.550;5.418;2023-04-03T04:57:22;10.63;;;2.90;;
32295;SDS011;18781;51.550;5.418;2023-04-03T04:59:48;6.68;;;2.70;;
32295;SDS011;18781;51.550;5.418;2023-04-03T05:02:13;8.27;;;2.92;;
32295;SDS011;18781;51.550;5.418;2023-04-03T05:04:40;5.90;;;2.63;;
32295;SDS011;18781;51.550;5.418;2023-04-03T05:07:05;8.48;;;2.80;;
32295;SDS011;18781;51.550;5.418;2023-04-03T05:09:31;8.57;;;2.92;;
32295;SDS011;18781;51.550;5.418;2023-04-03T05:11:56;9.30;;;2.88;;
32295;SDS011;18781;51.550;5.418;2023-04-03T05:14:22;8.05;;;2.75;;
32295;SDS011;18781;51.550;5.418;2023-04-03T05:16:48;9.25;;;3.20;;
32295;SDS011;18781;51.550;5.418;2023-04-03T05:19:17;7.60;;;2.90;;
32295;SDS011;18781;51.550;5.418;2023-04-03T05:21:43;8.50;;;3.10;;
32295;SDS011;18781;51.550;5.418;2023-04-03T05:24:09;7.10;;;2.67;;
32295;SDS011;18781;51.550;5.418;2023-04-03T05:26:34;36.58;;;12.43;;
32295;SDS011;18781;51.550;5.418;2023-04-03T05:29:00;8.68;;;3.10;;
32295;SDS011;18781;51.550;5.418;2023-04-03T05:31:26;8.38;;;4.22;;
32295;SDS011;18781;51.550;5.418;2023-04-03T05:33:54;5.25;;;2.38;;
32295;SDS011;18781;51.550;5.418;2023-04-03T05:36:20;7.90;;;3.22;;
32295;SDS011;18781;51.550;5.418;2023-04-03T05:38:46;8.07;;;2.70;;
32295;SDS011;18781;51.550;5.418;2023-04-03T05:41:12;10.95;;;3.10;;
32295;SDS011;18781;51.550;5.418;2023-04-03T05:43:39;6.80;;;3.50;;
32295;SDS011;18781;51.550;5.418;2023-04-03T05:46:11;6.68;;;3.10;;
32295;SDS011;18781;51.550;5.418;2023-04-03T05:48:38;9.23;;;2.83;;
32295;SDS011;18781;51.550;5.418;2023-04-03T05:51:04;7.38;;;3.20;;
32295;SDS011;18781;51.550;5.418;2023-04-03T05:53:31;7.78;;;3.25;;
32295;SDS011;18781;51.550;5.418;2023-04-03T05:56:00;27.17;;;3.67;;
32295;SDS011;18781;51.550;5.418;2023-04-03T05:58:25;12.52;;;3.38;;
32295;SDS011;18781;51.550;5.418;2023-04-03T06:00:51;7.18;;;3.33;;
32295;SDS011;18781;51.550;5.418;2023-04-03T06:03:17;10.27;;;3.10;;
32295;SDS011;18781;51.550;5.418;2023-04-03T06:05:42;6.30;;;2.55;;
32295;SDS011;18781;51.550;5.418;2023-04-03T06:08:08;11.18;;;2.65;;
32295;SDS011;18781;51.550;5.418;2023-04-03T06:10:34;10.90;;;3.08;;
32295;SDS011;18781;51.550;5.418;2023-04-03T06:13:00;15.07;;;5.60;;
32295;SDS011;18781;51.550;5.418;2023-04-03T06:15:26;32.20;;;15.77;;
32295;SDS011;18781;51.550;5.418;2023-04-03T06:17:52;11.07;;;3.40;;
32295;SDS011;18781;51.550;5.418;2023-04-03T06:20:17;10.15;;;3.13;;
32295;SDS011;18781;51.550;5.418;2023-04-03T06:22:43;6.90;;;2.65;;
32295;SDS011;18781;51.550;5.418;2023-04-03T06:25:09;11.70;;;2.90;;
32295;SDS011;18781;51.550;5.418;2023-04-03T06:27:35;6.55;;;2.65;;
32295;SDS011;18781;51.550;5.418;2023-04-03T06:30:00;9.50;;;3.08;;
32295;SDS011;18781;51.550;5.418;2023-04-03T06:32:26;8.80;;;3.38;;
32295;SDS011;18781;51.550;5.418;2023-04-03T06:34:51;8.10;;;3.15;;
32295;SDS011;18781;51.550;5.418;2023-04-03T06:37:19;6.70;;;3.20;;
32295;SDS011;18781;51.550;5.418;2023-04-03T06:39:47;9.98;;;3.38;;
32295;SDS011;18781;51.550;5.418;2023-04-03T06:42:13;6.35;;;2.60;;
32295;SDS011;18781;51.550;5.418;2023-04-03T06:44:39;8.38;;;2.78;;
32295;SDS011;18781;51.550;5.418;2023-04-03T06:47:04;8.43;;;2.67;;
32295;SDS011;18781;51.550;5.418;2023-04-03T06:49:30;6.90;;;3.35;;
32295;SDS011;18781;51.550;5.418;2023-04-03T06:51:56;11.07;;;3.22;;
32295;SDS011;18781;51.550;5.418;2023-04-03T06:54:22;15.25;;;2.97;;
32295;SDS011;18781;51.550;5.418;2023-04-03T06:56:48;11.40;;;2.90;;
32295;SDS011;18781;51.550;5.418;2023-04-03T06:59:14;5.25;;;2.67;;
32295;SDS011;18781;51.550;5.418;2023-04-03T07:01:40;12.05;;;2.95;;
32295;SDS011;18781;51.550;5.418;2023-04-03T07:04:06;11.40;;;2.95;;
32295;SDS011;18781;51.550;5.418;2023-04-03T07:06:33;7.45;;;2.55;;
32295;SDS011;18781;51.550;5.418;2023-04-03T07:08:59;9.85;;;2.70;;
32295;SDS011;18781;51.550;5.418;2023-04-03T07:11:25;10.70;;;2.85;;
32295;SDS011;18781;51.550;5.418;2023-04-03T07:13:51;7.70;;;2.63;;
32295;SDS011;18781;51.550;5.418;2023-04-03T07:16:17;11.32;;;3.33;;
32295;SDS011;18781;51.550;5.418;2023-04-03T07:18:43;8.38;;;2.80;;
32295;SDS011;18781;51.550;5.418;2023-04-03T07:21:09;6.50;;;2.92;;
32295;SDS011;18781;51.550;5.418;2023-04-03T07:23:35;12.18;;;3.28;;
32295;SDS011;18781;51.550;5.418;2023-04-03T07:26:01;11.43;;;3.20;;
32295;SDS011;18781;51.550;5.418;2023-04-03T07:28:27;8.23;;;2.65;;
32295;SDS011;18781;51.550;5.418;2023-04-03T07:30:53;9.15;;;2.90;;
32295;SDS011;18781;51.550;5.418;2023-04-03T07:33:25;11.75;;;2.70;;
32295;SDS011;18781;51.550;5.418;2023-04-03T07:35:51;14.13;;;2.88;;
32295;SDS011;18781;51.550;5.418;2023-04-03T07:38:17;10.32;;;2.75;;
32295;SDS011;18781;51.550;5.418;2023-04-03T07:40:47;8.90;;;3.08;;
32295;SDS011;18781;51.550;5.418;2023-04-03T07:43:14;14.57;;;2.83;;
32295;SDS011;18781;51.550;5.418;2023-04-03T07:45:41;9.13;;;2.88;;
32295;SDS011;18781;51.550;5.418;2023-04-03T07:48:08;7.88;;;2.25;;
32295;SDS011;18781;51.550;5.418;2023-04-03T07:50:37;6.40;;;3.03;;
32295;SDS011;18781;51.550;5.418;2023-04-03T07:53:05;9.43;;;2.90;;
32295;SDS011;18781;51.550;5.418;2023-04-03T07:55:31;9.80;;;2.67;;
32295;SDS011;18781;51.550;5.418;2023-04-03T07:57:57;6.95;;;2.58;;
32295;SDS011;18781;51.550;5.418;2023-04-03T08:00:23;10.55;;;3.00;;
32295;SDS011;18781;51.550;5.418;2023-04-03T08:02:49;9.70;;;3.25;;
32295;SDS011;18781;51.550;5.418;2023-04-03T08:05:19;10.23;;;3.95;;
32295;SDS011;18781;51.550;5.418;2023-04-03T08:07:46;7.20;;;3.35;;
32295;SDS011;18781;51.550;5.418;2023-04-03T08:10:12;12.50;;;2.97;;
32295;SDS011;18781;51.550;5.418;2023-04-03T08:12:39;8.13;;;3.05;;
32295;SDS011;18781;51.550;5.418;2023-04-03T08:15:05;10.80;;;2.92;;
32295;SDS011;18781;51.550;5.418;2023-04-03T08:17:32;9.25;;;2.55;;
32295;SDS011;18781;51.550;5.418;2023-04-03T08:19:57;6.43;;;2.63;;
32295;SDS011;18781;51.550;5.418;2023-04-03T08:22:23;7.25;;;2.40;;
32295;SDS011;18781;51.550;5.418;2023-04-03T08:24:49;11.73;;;3.58;;
32295;SDS011;18781;51.550;5.418;2023-04-03T08:27:15;11.02;;;2.85;;
32295;SDS011;18781;51.550;5.418;2023-04-03T08:29:40;8.00;;;2.72;;
32295;SDS011;18781;51.550;5.418;2023-04-03T08:32:06;6.25;;;2.92;;
32295;SDS011;18781;51.550;5.418;2023-04-03T08:34:32;6.22;;;2.58;;
32295;SDS011;18781;51.550;5.418;2023-04-03T08:37:01;11.48;;;2.92;;
32295;SDS011;18781;51.550;5.418;2023-04-03T08:39:27;9.00;;;2.70;;
32295;SDS011;18781;51.550;5.418;2023-04-03T08:41:53;7.38;;;3.03;;
32295;SDS011;18781;51.550;5.418;2023-04-03T08:49:41;5.90;;;2.40;;
32295;SDS011;18781;51.550;5.418;2023-04-03T08:52:15;7.25;;;2.00;;
32295;SDS011;18781;51.550;5.418;2023-04-03T08:55:00;7.55;;;2.00;;
32295;SDS011;18781;51.550;5.418;2023-04-03T08:59:59;7.05;;;2.08;;
32295;SDS011;18781;51.550;5.418;2023-04-03T09:02:30;5.90;;;2.10;;
32295;SDS011;18781;51.550;5.418;2023-04-03T09:04:59;8.75;;;2.28;;
32295;SDS011;18781;51.550;5.418;2023-04-03T09:07:30;5.90;;;2.30;;
32295;SDS011;18781;51.550;5.418;2023-04-03T09:10:04;6.32;;;1.70;;
32295;SDS011;18781;51.550;5.418;2023-04-03T09:12:39;5.03;;;2.10;;
32295;SDS011;18781;51.550;5.418;2023-04-03T09:15:18;10.98;;;2.35;;
32295;SDS011;18781;51.550;5.418;2023-04-03T09:20:33;5.32;;;1.90;;
32295;SDS011;18781;51.550;5.418;2023-04-03T09:25:49;4.57;;;1.63;;
32295;SDS011;18781;51.550;5.418;2023-04-03T09:28:18;5.07;;;1.70;;
32295;SDS011;18781;51.550;5.418;2023-04-03T09:30:44;8.07;;;2.10;;
32295;SDS011;18781;51.550;5.418;2023-04-03T09:33:10;4.57;;;1.60;;
32295;SDS011;18781;51.550;5.418;2023-04-03T09:35:37;5.53;;;1.63;;
32295;SDS011;18781;51.550;5.418;2023-04-03T09:40:38;4.05;;;1.38;;
32295;SDS011;18781;51.550;5.418;2023-04-03T09:45:48;3.42;;;1.20;;
32295;SDS011;18781;51.550;5.418;2023-04-03T09:48:17;5.38;;;1.20;;
32295;SDS011;18781;51.550;5.418;2023-04-03T09:56:25;2.55;;;0.80;;
32295;SDS011;18781;51.550;5.418;2023-04-03T09:59:05;4.18;;;1.02;;
32295;SDS011;18781;51.550;5.418;2023-04-03T10:01:38;3.08;;;1.15;;
32295;SDS011;18781;51.550;5.418;2023-04-03T10:04:13;2.20;;;1.00;;
32295;SDS011;18781;51.550;5.418;2023-04-03T10:06:42;3.67;;;1.20;;
32295;SDS011;18781;51.550;5.418;2023-04-03T10:09:25;3.38;;;1.13;;
32295;SDS011;18781;51.550;5.418;2023-04-03T10:12:05;2.00;;;1.10;;
32295;SDS011;18781;51.550;5.418;2023-04-03T10:14:34;2.25;;;1.33;;
32295;SDS011;18781;51.550;5.418;2023-04-03T10:17:09;2.72;;;1.20;;
32295;SDS011;18781;51.550;5.418;2023-04-03T10:28:09;3.42;;;1.10;;
32295;SDS011;18781;51.550;5.418;2023-04-03T10:39:02;5.00;;;1.20;;
32295;SDS011;18781;51.550;5.418;2023-04-03T10:49:35;1.85;;;0.75;;
32295;SDS011;18781;51.550;5.418;2023-04-03T10:57:21;4.28;;;1.13;;
32295;SDS011;18781;51.550;5.418;2023-04-03T10:59:50;3.70;;;1.20;;
32295;SDS011;18781;51.550;5.418;2023-04-03T11:02:36;5.35;;;1.10;;
32295;SDS011;18781;51.550;5.418;2023-04-03T11:05:13;1.65;;;0.80;;
32295;SDS011;18781;51.550;5.418;2023-04-03T11:07:59;1.80;;;0.80;;
32295;SDS011;18781;51.550;5.418;2023-04-03T11:10:42;2.03;;;1.15;;
32295;SDS011;18781;51.550;5.418;2023-04-03T11:13:20;3.13;;;0.93;;
32295;SDS011;18781;51.550;5.418;2023-04-03T11:15:50;3.95;;;1.00;;
32295;SDS011;18781;51.550;5.418;2023-04-03T11:18:22;3.83;;;0.80;;
32295;SDS011;18781;51.550;5.418;2023-04-03T11:21:04;4.10;;;0.88;;
32295;SDS011;18781;51.550;5.418;2023-04-03T11:23:52;4.03;;;1.30;;
32295;SDS011;18781;51.550;5.418;2023-04-03T11:26:24;3.08;;;0.90;;
32295;SDS011;18781;51.550;5.418;2023-04-03T11:29:02;1.98;;;1.20;;
32295;SDS011;18781;51.550;5.418;2023-04-03T11:34:20;2.17;;;1.02;;
32295;SDS011;18781;51.550;5.418;2023-04-03T11:36:57;4.18;;;1.02;;
32295;SDS011;18781;51.550;5.418;2023-04-03T11:42:14;6.38;;;1.50;;
32295;SDS011;18781;51.550;5.418;2023-04-03T11:44:42;1.98;;;0.80;;
32295;SDS011;18781;51.550;5.418;2023-04-03T11:47:09;2.90;;;1.00;;
32295;SDS011;18781;51.550;5.418;2023-04-03T12:13:33;4.82;;;1.42;;
32295;SDS011;18781;51.550;5.418;2023-04-03T12:16:03;3.28;;;1.05;;
32295;SDS011;18781;51.550;5.418;2023-04-03T12:27:00;1.98;;;0.90;;
32295;SDS011;18781;51.550;5.418;2023-04-03T12:43:27;4.82;;;1.23;;
32295;SDS011;18781;51.550;5.418;2023-04-03T12:51:21;4.05;;;1.55;;
32295;SDS011;18781;51.550;5.418;2023-04-03T12:53:51;4.32;;;1.65;;
32295;SDS011;18781;51.550;5.418;2023-04-03T12:56:25;3.75;;;1.27;;
32295;SDS011;18781;51.550;5.418;2023-04-03T12:58:54;3.97;;;1.60;;
32295;SDS011;18781;51.550;5.418;2023-04-03T13:01:39;6.85;;;1.80;;
32295;SDS011;18781;51.550;5.418;2023-04-03T13:04:05;4.22;;;1.55;;
32295;SDS011;18781;51.550;5.418;2023-04-03T13:06:32;2.10;;;1.48;;
32295;SDS011;18781;51.550;5.418;2023-04-03T13:09:04;5.00;;;1.67;;
32295;SDS011;18781;51.550;5.418;2023-04-03T13:11:33;5.22;;;1.80;;
32295;SDS011;18781;51.550;5.418;2023-04-03T13:14:02;5.35;;;1.55;;
32295;SDS011;18781;51.550;5.418;2023-04-03T13:16:30;4.40;;;1.60;;
32295;SDS011;18781;51.550;5.418;2023-04-03T13:18:58;2.60;;;1.58;;
32295;SDS011;18781;51.550;5.418;2023-04-03T13:21:25;8.60;;;1.85;;
32295;SDS011;18781;51.550;5.418;2023-04-03T13:23:54;4.75;;;1.60;;
32295;SDS011;18781;51.550;5.418;2023-04-03T13:26:23;6.68;;;1.90;;
32295;SDS011;18781;51.550;5.418;2023-04-03T13:28:51;5.80;;;1.92;;
32295;SDS011;18781;51.550;5.418;2023-04-03T13:31:26;4.85;;;1.80;;
32295;SDS011;18781;51.550;5.418;2023-04-03T13:36:36;2.28;;;1.52;;
32295;SDS011;18781;51.550;5.418;2023-04-03T13:41:36;4.75;;;1.70;;
32295;SDS011;18781;51.550;5.418;2023-04-03T13:46:51;6.38;;;1.50;;
32295;SDS011;18781;51.550;5.418;2023-04-03T13:49:22;4.22;;;1.58;;
32295;SDS011;18781;51.550;5.418;2023-04-03T13:51:55;4.22;;;1.70;;
32295;SDS011;18781;51.550;5.418;2023-04-03T13:54:23;4.72;;;1.60;;
32295;SDS011;18781;51.550;5.418;2023-04-03T13:57:03;5.15;;;1.73;;
32295;SDS011;18781;51.550;5.418;2023-04-03T13:59:41;3.03;;;1.60;;
32295;SDS011;18781;51.550;5.418;2023-04-03T14:07:01;5.55;;;1.88;;
32295;SDS011;18781;51.550;5.418;2023-04-03T14:09:28;3.70;;;1.73;;
32295;SDS011;18781;51.550;5.418;2023-04-03T14:11:54;3.85;;;1.65;;
32295;SDS011;18781;51.550;5.418;2023-04-03T14:14:26;5.32;;;2.00;;
32295;SDS011;18781;51.550;5.418;2023-04-03T14:16:56;3.22;;;1.40;;
32295;SDS011;18781;51.550;5.418;2023-04-03T14:19:29;4.45;;;1.90;;
32295;SDS011;18781;51.550;5.418;2023-04-03T14:21:57;6.05;;;2.30;;
32295;SDS011;18781;51.550;5.418;2023-04-03T14:24:24;5.50;;;1.73;;
32295;SDS011;18781;51.550;5.418;2023-04-03T14:26:51;7.75;;;2.50;;
32295;SDS011;18781;51.550;5.418;2023-04-03T14:29:18;6.00;;;2.10;;
32295;SDS011;18781;51.550;5.418;2023-04-03T14:31:44;6.28;;;2.05;;
32295;SDS011;18781;51.550;5.418;2023-04-03T14:34:14;6.25;;;2.25;;
32295;SDS011;18781;51.550;5.418;2023-04-03T14:36:41;7.03;;;2.15;;
32295;SDS011;18781;51.550;5.418;2023-04-03T14:39:10;7.10;;;2.20;;
32295;SDS011;18781;51.550;5.418;2023-04-03T14:41:42;8.13;;;1.92;;
32295;SDS011;18781;51.550;5.418;2023-04-03T14:44:09;4.78;;;1.98;;
32295;SDS011;18781;51.550;5.418;2023-04-03T14:46:36;7.47;;;1.80;;
32295;SDS011;18781;51.550;5.418;2023-04-03T14:49:03;3.60;;;1.75;;
32295;SDS011;18781;51.550;5.418;2023-04-03T14:51:37;5.85;;;1.63;;
32295;SDS011;18781;51.550;5.418;2023-04-03T14:54:03;4.40;;;1.88;;
32295;SDS011;18781;51.550;5.418;2023-04-03T14:56:28;6.78;;;2.08;;
32295;SDS011;18781;51.550;5.418;2023-04-03T14:58:58;5.25;;;2.08;;
32295;SDS011;18781;51.550;5.418;2023-04-03T15:01:25;4.05;;;1.90;;
32295;SDS011;18781;51.550;5.418;2023-04-03T15:03:51;6.43;;;1.83;;
32295;SDS011;18781;51.550;5.418;2023-04-03T15:06:17;4.85;;;2.00;;
32295;SDS011;18781;51.550;5.418;2023-04-03T15:08:43;5.97;;;1.88;;
32295;SDS011;18781;51.550;5.418;2023-04-03T15:11:11;5.85;;;2.08;;
32295;SDS011;18781;51.550;5.418;2023-04-03T15:13:37;4.35;;;1.83;;
32295;SDS011;18781;51.550;5.418;2023-04-03T15:16:04;4.93;;;1.85;;
32295;SDS011;18781;51.550;5.418;2023-04-03T15:18:32;6.45;;;2.03;;
32295;SDS011;18781;51.550;5.418;2023-04-03T15:21:02;5.00;;;1.80;;
32295;SDS011;18781;51.550;5.418;2023-04-03T15:23:28;4.03;;;1.98;;
32295;SDS011;18781;51.550;5.418;2023-04-03T15:25:55;5.22;;;2.17;;
32295;SDS011;18781;51.550;5.418;2023-04-03T15:28:22;7.93;;;1.70;;
32295;SDS011;18781;51.550;5.418;2023-04-03T15:30:53;3.72;;;1.45;;
32295;SDS011;18781;51.550;5.418;2023-04-03T15:33:19;7.70;;;2.30;;
32295;SDS011;18781;51.550;5.418;2023-04-03T15:35:45;4.93;;;2.20;;
32295;SDS011;18781;51.550;5.418;2023-04-03T15:38:10;3.88;;;1.90;;
32295;SDS011;18781;51.550;5.418;2023-04-03T15:40:36;5.13;;;1.80;;
32295;SDS011;18781;51.550;5.418;2023-04-03T15:43:02;3.47;;;1.80;;
32295;SDS011;18781;51.550;5.418;2023-04-03T15:45:28;8.02;;;1.98;;
32295;SDS011;18781;51.550;5.418;2023-04-03T15:47:54;4.35;;;2.00;;
32295;SDS011;18781;51.550;5.418;2023-04-03T15:50:20;6.65;;;2.00;;
32295;SDS011;18781;51.550;5.418;2023-04-03T15:52:48;10.60;;;3.78;;
32295;SDS011;18781;51.550;5.418;2023-04-03T15:55:18;7.85;;;2.10;;
32295;SDS011;18781;51.550;5.418;2023-04-03T15:57:45;6.47;;;2.17;;
32295;SDS011;18781;51.550;5.418;2023-04-03T16:00:11;6.85;;;1.80;;
32295;SDS011;18781;51.550;5.418;2023-04-03T16:02:37;4.85;;;1.92;;
32295;SDS011;18781;51.550;5.418;2023-04-03T16:05:03;4.88;;;1.80;;
32295;SDS011;18781;51.550;5.418;2023-04-03T16:07:28;6.00;;;2.20;;
32295;SDS011;18781;51.550;5.418;2023-04-03T16:09:54;4.70;;;2.03;;
32295;SDS011;18781;51.550;5.418;2023-04-03T16:12:20;7.05;;;2.30;;
32295;SDS011;18781;51.550;5.418;2023-04-03T16:14:45;6.55;;;2.28;;
32295;SDS011;18781;51.550;5.418;2023-04-03T16:17:11;8.00;;;2.60;;
32295;SDS011;18781;51.550;5.418;2023-04-03T16:19:36;4.88;;;2.00;;
32295;SDS011;18781;51.550;5.418;2023-04-03T16:22:02;4.25;;;1.92;;
32295;SDS011;18781;51.550;5.418;2023-04-03T16:24:28;6.20;;;1.77;;
32295;SDS011;18781;51.550;5.418;2023-04-03T16:26:54;3.08;;;1.50;;
32295;SDS011;18781;51.550;5.418;2023-04-03T16:29:20;5.03;;;1.75;;
32295;SDS011;18781;51.550;5.418;2023-04-03T16:31:46;7.50;;;1.70;;
32295;SDS011;18781;51.550;5.418;2023-04-03T16:34:12;6.78;;;1.88;;
32295;SDS011;18781;51.550;5.418;2023-04-03T16:36:37;5.20;;;1.85;;
32295;SDS011;18781;51.550;5.418;2023-04-03T16:39:03;6.85;;;1.77;;
32295;SDS011;18781;51.550;5.418;2023-04-03T16:41:28;7.03;;;1.85;;
32295;SDS011;18781;51.550;5.418;2023-04-03T16:43:54;9.15;;;1.63;;
32295;SDS011;18781;51.550;5.418;2023-04-03T16:46:20;6.00;;;1.75;;
32295;SDS011;18781;51.550;5.418;2023-04-03T16:48:45;5.72;;;1.88;;
32295;SDS011;18781;51.550;5.418;2023-04-03T16:51:12;4.13;;;1.85;;
32295;SDS011;18781;51.550;5.418;2023-04-03T16:53:38;4.53;;;2.05;;
32295;SDS011;18781;51.550;5.418;2023-04-03T16:56:03;8.02;;;2.47;;
32295;SDS011;18781;51.550;5.418;2023-04-03T16:58:29;7.47;;;1.92;;
32295;SDS011;18781;51.550;5.418;2023-04-03T17:00:55;5.50;;;2.00;;
32295;SDS011;18781;51.550;5.418;2023-04-03T17:03:21;7.38;;;2.15;;